createdAt,value
2019-04-21T00:03:50.020Z,43.4
2019-04-21T00:10:18.197Z,43.9
2019-04-21T00:14:21.653Z,44
2019-04-21T00:18:29.538Z,44.5
2019-04-21T00:24:41.124Z,44.7
2019-04-21T00:30:21.201Z,44.9
2019-04-21T00:33:55.069Z,45.3
2019-04-21T00:40:47.672Z,45.3
2019-04-21T00:45:01.662Z,45.6
2019-04-21T00:50:50.807Z,46
2019-04-21T00:56:08.319Z,46
2019-04-21T01:01:01.399Z,46.4
2019-04-21T01:06:28.497Z,46.6
2019-04-21T01:10:41.717Z,47.1
2019-04-21T01:16:13.612Z,47.4
2019-04-21T01:20:18.573Z,47.6
2019-04-21T01:25:25.492Z,48
2019-04-21T01:31:22.347Z,48.3
2019-04-21T01:36:23.099Z,48.7
2019-04-21T01:41:56.867Z,49.1
2019-04-21T01:46:29.226Z,49.4
2019-04-21T01:51:25.875Z,49.8
2019-04-21T01:56:44.310Z,50.2
2019-04-21T02:01:33.150Z,50.6
2019-04-21T02:07:14.465Z,51.2
2019-04-21T02:12:13.199Z,51.7
2019-04-21T02:17:21.587Z,51.9
2019-04-21T02:21:33.889Z,52.1
2019-04-21T02:27:23.263Z,52.3
2019-04-21T02:33:08.355Z,52.3
2019-04-21T02:38:16.215Z,52.7
2019-04-21T02:43:18.430Z,53
2019-04-21T02:48:16.885Z,53.3
2019-04-21T02:58:50.918Z,53.1
2019-04-21T03:03:58.466Z,53.6
2019-04-21T03:14:05.174Z,54.4
2019-04-21T03:19:14.626Z,54.5
2019-04-21T03:24:28.794Z,55.6
2019-04-21T03:29:34.628Z,55.9
2019-04-21T03:44:36.811Z,57.3
2019-04-21T03:49:47.088Z,57.2
2019-04-21T03:54:35.769Z,57.8
2019-04-21T03:59:10.933Z,58.8
2019-04-21T04:09:44.249Z,59.3
2019-04-21T04:14:49.902Z,59
2019-04-21T04:20:11.450Z,58.7
2019-04-21T04:30:06.158Z,57.2
2019-04-21T04:35:41.940Z,56.8
2019-04-21T04:40:38.098Z,56.3
2019-04-21T04:50:52.874Z,56.1
2019-04-21T05:01:40.280Z,54.7
2019-04-21T05:06:09.796Z,53.5
2019-04-21T05:10:56.613Z,53
2019-04-21T05:15:41.376Z,51.7
2019-04-21T05:22:02.974Z,51.4
2019-04-21T05:25:13.013Z,50.3
2019-04-21T05:30:06.938Z,48.8
2019-04-21T05:35:31.987Z,48.8
2019-04-21T05:40:17.203Z,48.5
2019-04-21T05:46:04.224Z,48
2019-04-21T05:50:48.964Z,47.2
2019-04-21T05:56:09.755Z,46.9
2019-04-21T06:01:46.157Z,45.4
2019-04-21T06:07:51.718Z,43
2019-04-21T06:11:25.008Z,42.8
2019-04-21T06:16:35.585Z,42.3
2019-04-21T06:21:26.149Z,40.6
2019-04-21T06:27:30.997Z,41
2019-04-21T06:32:30.166Z,39
2019-04-21T06:37:48.943Z,36.5
2019-04-21T06:42:08.962Z,36.6
2019-04-21T06:47:15.048Z,35.6
2019-04-21T06:52:23.317Z,33.8
2019-04-21T06:57:08.509Z,34.6
2019-04-21T07:02:51.737Z,34.3
2019-04-21T07:07:34.954Z,32.9
2019-04-21T07:12:21.535Z,31.2
2019-04-21T07:17:49.720Z,31.5
2019-04-21T07:22:41.368Z,31.7
2019-04-21T07:27:41.088Z,29.6
2019-04-21T07:33:00.762Z,28.8
2019-04-21T07:37:57.537Z,27.5
2019-04-21T07:42:27.939Z,28.1
2019-04-21T07:47:15.196Z,26.2
2019-04-21T07:53:20.978Z,25.5
2019-04-21T07:56:58.878Z,25.2
2019-04-21T08:03:00.025Z,22.1
2019-04-21T08:08:20.596Z,20
2019-04-21T08:12:54.018Z,19.9
2019-04-21T08:18:26.559Z,19
2019-04-21T08:23:25.221Z,17.5
2019-04-21T08:28:51.942Z,17.3
2019-04-21T08:38:40.011Z,18.2
2019-04-21T08:44:00.556Z,15.7
2019-04-21T08:49:07.798Z,15.1
2019-04-21T08:54:21.353Z,16.4
2019-04-21T08:59:18.569Z,15.8
2019-04-21T09:04:18.405Z,15.5
2019-04-21T09:09:16.343Z,14.5
2019-04-21T09:14:00.532Z,15.8
2019-04-21T09:18:40.292Z,14.8
2019-04-21T09:24:11.266Z,14.1
2019-04-21T09:28:51.619Z,13.1
2019-04-21T09:33:04.035Z,14.5
2019-04-21T09:38:41.656Z,13.8
2019-04-21T09:43:43.411Z,14.7
2019-04-21T09:48:26.572Z,14.8
2019-04-21T09:53:40.011Z,14.7
2019-04-21T09:58:49.510Z,14.2
2019-04-21T10:03:35.845Z,13.4
2019-04-21T10:08:38.485Z,13.7
2019-04-21T10:13:46.325Z,14.1
2019-04-21T10:18:56.665Z,13.9
2019-04-21T10:23:55.229Z,12.4
2019-04-21T10:29:32.595Z,12.5
2019-04-21T10:34:13.463Z,12.4
2019-04-21T10:39:21.747Z,13.6
2019-04-21T10:44:31.488Z,13.1
2019-04-21T10:49:37.752Z,14
2019-04-21T10:56:07.959Z,14.5
2019-04-21T10:59:59.781Z,14.3
2019-04-21T11:05:00.498Z,12.8
2019-04-21T11:10:09.934Z,13.7
2019-04-21T11:20:21.497Z,13.9
2019-04-21T11:25:31.305Z,15.2
2019-04-21T11:30:38.768Z,15
2019-04-21T11:35:46.355Z,14.4
2019-04-21T11:40:55.835Z,15.1
2019-04-21T11:46:04.494Z,15.9
2019-04-21T11:51:13.006Z,15.3
2019-04-21T11:56:22.956Z,15.2
2019-04-21T12:01:23.381Z,14.8
2019-04-21T12:06:49.466Z,16.8
2019-04-21T12:11:37.478Z,18.3
2019-04-21T12:16:45.095Z,18.6
2019-04-21T12:22:27.114Z,17.9
2019-04-21T12:26:57.940Z,18.2
2019-04-21T12:32:07.582Z,18.8
2019-04-21T12:42:22.861Z,19.4
2019-04-21T12:47:23.766Z,19.3
2019-04-21T12:52:29.386Z,19.9
2019-04-21T12:57:41.229Z,21.1
2019-04-21T13:02:39.691Z,22
2019-04-21T13:07:53.245Z,21
2019-04-21T13:12:52.071Z,21
2019-04-21T13:17:52.187Z,21
2019-04-21T13:22:59.512Z,20.3
2019-04-21T13:28:10.444Z,21
2019-04-21T13:33:11.258Z,20.9
2019-04-21T13:39:09.364Z,21.5
2019-04-21T13:43:23.016Z,22.4
2019-04-21T13:48:32.729Z,22.4
2019-04-21T13:53:34.820Z,22.2
2019-04-21T13:58:44.203Z,22.6
2019-04-21T14:03:53.517Z,21.7
2019-04-21T14:09:03.132Z,22.4
2019-04-21T14:14:12.406Z,22.3
2019-04-21T14:19:21.406Z,21.9
2019-04-21T14:24:30.831Z,22.9
2019-04-21T14:29:39.483Z,23.2
2019-04-21T14:34:53.814Z,25
2019-04-21T14:40:15.573Z,25.1
2019-04-21T14:44:56.778Z,24.5
2019-04-21T14:50:05.087Z,23.9
2019-04-21T14:55:10.675Z,24.6
2019-04-21T15:00:18.581Z,24.6
2019-04-21T15:05:27.219Z,24.5
2019-04-21T15:10:40.954Z,23.9
2019-04-21T15:15:39.409Z,24.1
2019-04-21T15:20:55.119Z,23.3
2019-04-21T15:25:56.371Z,24.7
2019-04-21T15:31:05.820Z,24.9
2019-04-21T15:36:15.029Z,25.4
2019-04-21T15:41:26.772Z,25.2
2019-04-21T15:46:26.712Z,25.4
2019-04-21T15:51:35.672Z,25.7
2019-04-21T15:56:44.724Z,25.7
2019-04-21T16:01:52.494Z,25.3
2019-04-21T16:07:01.621Z,25.6
2019-04-21T16:12:01.880Z,25.5
2019-04-21T16:17:11.628Z,27
2019-04-21T16:22:10.781Z,26.5
2019-04-21T16:27:19.363Z,26.2
2019-04-21T16:32:30.150Z,26.8
2019-04-21T16:37:29.768Z,26.8
2019-04-21T16:42:38.279Z,26.7
2019-04-21T16:47:55.546Z,27.3
2019-04-21T16:52:59.638Z,27.3
2019-04-21T17:03:10.469Z,27.4
2019-04-21T17:08:11.897Z,27.7
2019-04-21T17:13:20.249Z,27.8
2019-04-21T17:19:21.754Z,28.5
2019-04-21T17:23:35.520Z,28.5
2019-04-21T17:28:32.689Z,28.5
2019-04-21T17:33:41.276Z,29
2019-04-21T17:38:41.746Z,29
2019-04-21T17:43:49.895Z,30.9
2019-04-21T17:48:49.242Z,31
2019-04-21T17:54:03.061Z,31.9
2019-04-21T18:01:19.179Z,32.4
2019-04-21T18:05:45.688Z,33.7
2019-04-21T18:10:43.840Z,33.5
2019-04-21T18:14:20.222Z,33
2019-04-21T18:19:28.617Z,33.6
2019-04-21T18:24:56.638Z,34.2
2019-04-21T18:29:31.699Z,35
2019-04-21T18:35:05.240Z,35.3
2019-04-21T18:40:31.602Z,35.8
2019-04-21T18:46:45.660Z,36.2
2019-04-21T18:49:54.401Z,36.6
2019-04-21T18:55:46.545Z,36.5
2019-04-21T19:00:29.129Z,36.7
2019-04-21T19:05:28.257Z,37.1
2019-04-21T19:11:47.481Z,37.8
2019-04-21T19:17:32.584Z,38.1
2019-04-21T19:21:46.814Z,38.3
2019-04-21T19:35:52.954Z,38.9
2019-04-21T19:42:08.293Z,38.6
2019-04-21T19:47:27.708Z,38.8
2019-04-21T19:56:24.044Z,39
2019-04-21T20:01:32.557Z,39.4
2019-04-21T20:07:39.768Z,40.8
2019-04-21T20:13:11.334Z,40.5
2019-04-21T20:17:58.208Z,41.3
2019-04-21T20:21:56.869Z,41.4
2019-04-21T20:27:49.221Z,41.4
2019-04-21T20:34:10.622Z,42.7
2019-04-21T20:38:18.891Z,43.2
2019-04-21T20:43:30.475Z,43.5
2019-04-21T20:47:54.083Z,44.1
2019-04-21T20:53:47.456Z,43.8
2019-04-21T20:58:43.417Z,43.1
2019-04-21T21:04:01.355Z,42.2
2019-04-21T21:09:17.834Z,42
2019-04-21T21:14:27.748Z,41.6
2019-04-21T21:20:07.214Z,41.9
2019-04-21T21:24:41.145Z,43.5
2019-04-21T21:29:23.366Z,45.7
2019-04-21T21:35:07.778Z,46.6
2019-04-21T21:40:09.253Z,47.1
2019-04-21T21:43:41.584Z,46.9
2019-04-21T21:49:33.062Z,47.6
2019-04-21T21:53:50.567Z,48.1
2019-04-21T21:58:55.187Z,47.8
2019-04-21T22:04:30.653Z,47.4
2019-04-21T22:09:00.642Z,47.5
2019-04-21T22:14:39.025Z,47.5
2019-04-21T22:20:37.015Z,48.1
2019-04-21T22:24:58.618Z,48.8
2019-04-21T22:29:17.699Z,50.3
2019-04-21T22:34:59.748Z,50.4
2019-04-21T22:40:30.951Z,50.7
2019-04-21T22:44:30.116Z,50.8
2019-04-21T22:49:38.752Z,49.5
2019-04-21T22:54:54.141Z,49.8
2019-04-21T23:00:15.250Z,49.5
2019-04-21T23:05:04.415Z,49.5
2019-04-21T23:10:05.365Z,49.3
2019-04-21T23:15:42.299Z,49.8
2019-04-21T23:21:30.020Z,49.6
2019-04-21T23:26:30.783Z,49.5
2019-04-21T23:31:50.083Z,49.5
2019-04-21T23:35:44.177Z,49.5
2019-04-21T23:40:31.404Z,49.5
2019-04-21T23:45:46.946Z,49.7
2019-04-21T23:51:27.380Z,49.8
2019-04-21T23:55:41.078Z,49.9
